createdAt,value
2018-03-04T00:02:26.671Z,25.13
2018-03-04T00:04:55.636Z,24.77
2018-03-04T00:07:24.631Z,24.62
2018-03-04T00:09:53.668Z,24.47
2018-03-04T00:13:51.711Z,24.29
2018-03-04T00:16:20.670Z,24.21
2018-03-04T00:18:49.671Z,24.66
2018-03-04T00:21:18.692Z,25.12
2018-03-04T00:23:47.723Z,25.38
2018-03-04T00:26:17.158Z,25.34
2018-03-04T00:28:46.669Z,25.51
2018-03-04T00:31:15.717Z,25.42
2018-03-04T00:33:44.683Z,25.00
2018-03-04T00:36:13.674Z,24.73
2018-03-04T00:38:42.700Z,24.57
2018-03-04T00:41:11.687Z,24.30
2018-03-04T00:43:40.723Z,24.26
2018-03-04T00:46:09.677Z,24.26
2018-03-04T00:48:38.715Z,24.31
2018-03-04T00:51:07.727Z,24.82
2018-03-04T00:53:36.693Z,25.23
2018-03-04T00:56:05.711Z,25.65
2018-03-04T00:58:34.684Z,25.67
2018-03-04T01:01:03.701Z,25.29
2018-03-04T01:03:32.677Z,24.80
2018-03-04T01:06:01.665Z,24.62
2018-03-04T01:08:30.642Z,24.50
2018-03-04T01:10:59.701Z,24.39
2018-03-04T01:13:28.699Z,24.26
2018-03-04T01:15:57.732Z,24.13
2018-03-04T01:18:26.639Z,24.90
2018-03-04T01:20:55.704Z,25.19
2018-03-04T01:23:24.651Z,25.35
2018-03-04T01:28:04.640Z,25.45
2018-03-04T01:30:33.690Z,25.12
2018-03-04T01:35:28.743Z,24.33
2018-03-04T01:37:57.726Z,24.33
2018-03-04T01:40:26.773Z,24.32
2018-03-04T01:44:38.637Z,24.27
2018-03-04T01:47:07.675Z,24.33
2018-03-04T01:49:36.673Z,24.82
2018-03-04T01:52:05.639Z,25.42
2018-03-04T01:54:34.627Z,25.61
2018-03-04T01:57:03.639Z,25.63
2018-03-04T02:00:30.698Z,24.99
2018-03-04T02:02:59.674Z,24.66
2018-03-04T02:05:28.664Z,24.54
2018-03-04T02:07:57.687Z,24.42
2018-03-04T02:10:26.729Z,24.33
2018-03-04T02:15:08.689Z,24.45
2018-03-04T02:17:37.667Z,24.96
2018-03-04T02:20:06.725Z,25.28
2018-03-04T02:22:35.691Z,25.33
2018-03-04T02:25:04.705Z,25.36
2018-03-04T02:27:33.790Z,25.42
2018-03-04T02:30:02.778Z,24.97
2018-03-04T02:32:31.743Z,24.67
2018-03-04T02:35:00.773Z,24.47
2018-03-04T02:39:06.837Z,24.36
2018-03-04T02:41:35.743Z,24.35
2018-03-04T02:44:04.751Z,24.28
2018-03-04T02:46:34.448Z,24.64
2018-03-04T02:49:03.540Z,25.04
2018-03-04T02:57:46.501Z,25.55
2018-03-04T03:01:48.525Z,24.81
2018-03-04T03:04:17.649Z,24.57
2018-03-04T03:06:46.655Z,24.39
2018-03-04T03:09:15.763Z,24.12
2018-03-04T03:11:45.282Z,24.08
2018-03-04T03:14:14.289Z,24.07
2018-03-04T03:16:42.748Z,24.64
2018-03-04T03:19:42.593Z,25.05
2018-03-04T03:24:09.570Z,25.27
2018-03-04T03:26:38.645Z,25.52
2018-03-04T03:29:07.681Z,25.06
2018-03-04T03:31:36.647Z,24.61
2018-03-04T03:34:05.621Z,24.46
2018-03-04T03:36:34.627Z,24.47
2018-03-04T03:39:03.631Z,24.40
2018-03-04T03:41:32.697Z,24.34
2018-03-04T03:44:01.693Z,24.30
2018-03-04T03:46:30.652Z,24.35
2018-03-04T03:48:59.661Z,24.92
2018-03-04T03:51:28.655Z,25.27
2018-03-04T03:53:57.675Z,25.50
2018-03-04T03:56:26.639Z,25.45
2018-03-04T03:58:55.647Z,25.52
2018-03-04T04:01:24.628Z,24.94
2018-03-04T04:04:24.032Z,24.60
2018-03-04T04:06:52.743Z,24.50
2018-03-04T04:09:21.645Z,24.40
2018-03-04T04:11:50.743Z,24.30
2018-03-04T04:14:19.777Z,24.24
2018-03-04T04:16:48.742Z,24.40
2018-03-04T04:19:17.662Z,24.88
2018-03-04T04:22:24.687Z,25.33
2018-03-04T04:24:53.626Z,25.58
2018-03-04T04:27:22.654Z,25.57
2018-03-04T04:29:51.721Z,25.24
2018-03-04T04:32:20.763Z,24.49
2018-03-04T04:34:49.744Z,24.19
2018-03-04T04:37:18.895Z,23.99
2018-03-04T04:39:48.172Z,23.85
2018-03-04T04:42:16.710Z,23.71
2018-03-04T04:44:45.876Z,23.64
2018-03-04T04:47:15.567Z,24.05
2018-03-04T04:49:44.776Z,24.83
2018-03-04T04:52:13.886Z,25.16
2018-03-04T04:54:42.630Z,25.23
2018-03-04T04:57:11.679Z,25.41
2018-03-04T04:59:40.804Z,25.37
2018-03-04T05:02:09.721Z,24.90
2018-03-04T05:04:38.756Z,24.24
2018-03-04T05:07:54.767Z,23.83
2018-03-04T05:10:23.796Z,23.69
2018-03-04T05:12:52.776Z,23.47
2018-03-04T05:16:50.521Z,23.68
2018-03-04T05:19:19.679Z,24.41
2018-03-04T05:21:48.734Z,24.97
2018-03-04T05:24:17.680Z,25.13
2018-03-04T05:26:46.775Z,25.31
2018-03-04T05:29:15.676Z,25.27
2018-03-04T05:31:44.683Z,24.90
2018-03-04T05:34:13.735Z,24.31
2018-03-04T05:36:42.679Z,24.04
2018-03-04T05:41:00.730Z,23.78
2018-03-04T05:43:29.720Z,23.58
2018-03-04T05:45:58.687Z,23.55
2018-03-04T05:48:27.705Z,23.99
2018-03-04T05:50:56.688Z,24.72
2018-03-04T05:53:25.738Z,24.99
2018-03-04T05:57:48.666Z,25.30
2018-03-04T06:00:17.655Z,25.23
2018-03-04T06:02:46.674Z,24.84
2018-03-04T06:05:15.743Z,24.15
2018-03-04T06:11:22.438Z,23.54
2018-03-04T06:13:51.443Z,23.46
2018-03-04T06:16:20.437Z,23.50
2018-03-04T06:18:49.647Z,24.44
2018-03-04T06:21:18.652Z,24.73
2018-03-04T06:23:47.863Z,25.15
2018-03-04T06:26:16.646Z,25.22
2018-03-04T06:28:45.685Z,25.33
2018-03-04T06:31:14.632Z,25.20
2018-03-04T06:33:43.707Z,24.55
2018-03-04T06:36:12.703Z,24.28
2018-03-04T06:38:41.812Z,24.03
2018-03-04T06:41:10.666Z,23.82
2018-03-04T06:43:39.616Z,23.67
2018-03-04T06:46:08.664Z,23.62
2018-03-04T06:48:37.710Z,24.26
2018-03-04T06:51:06.643Z,24.87
2018-03-04T06:53:35.641Z,25.13
2018-03-04T06:58:17.774Z,25.22
2018-03-04T07:00:46.731Z,25.11
2018-03-04T07:03:15.629Z,24.75
2018-03-04T07:05:44.687Z,24.25
2018-03-04T07:08:13.637Z,23.99
2018-03-04T07:10:42.619Z,23.80
2018-03-04T07:15:29.662Z,23.69
2018-03-04T07:17:58.649Z,24.36
2018-03-04T07:20:27.679Z,24.75
2018-03-04T07:22:56.752Z,24.96
2018-03-04T07:25:25.635Z,25.11
2018-03-04T07:27:54.678Z,25.07
2018-03-04T07:30:23.616Z,25.43
2018-03-04T07:32:52.619Z,24.77
2018-03-04T07:35:21.611Z,24.21
2018-03-04T07:37:50.649Z,23.96
2018-03-04T07:40:19.694Z,23.80
2018-03-04T07:42:48.631Z,23.60
2018-03-04T07:45:17.565Z,23.61
2018-03-04T07:49:33.607Z,24.67
2018-03-04T07:57:21.689Z,25.28
2018-03-04T08:00:25.413Z,25.16
2018-03-04T08:02:54.418Z,25.30
2018-03-04T08:05:23.641Z,24.55
2018-03-04T08:07:52.666Z,24.15
2018-03-04T08:10:21.629Z,23.87
2018-03-04T08:12:50.651Z,23.78
2018-03-04T08:17:39.419Z,24.12
2018-03-04T08:20:08.420Z,24.68
2018-03-04T08:22:37.639Z,24.98
2018-03-04T08:25:18.629Z,25.23
2018-03-04T08:27:59.424Z,25.60
2018-03-04T08:30:28.590Z,25.77
2018-03-04T08:32:57.623Z,25.47
2018-03-04T08:35:26.736Z,24.68
2018-03-04T08:37:55.635Z,24.28
2018-03-04T08:41:35.640Z,23.99
2018-03-04T08:50:01.624Z,24.50
2018-03-04T08:52:30.623Z,25.04
2018-03-04T08:54:59.681Z,25.31
2018-03-04T08:57:28.646Z,25.38
2018-03-04T08:59:57.693Z,25.44
2018-03-04T09:02:26.641Z,25.46
2018-03-04T09:04:55.627Z,25.21
2018-03-04T09:08:18.655Z,24.41
2018-03-04T09:10:47.660Z,24.23
2018-03-04T09:13:16.624Z,24.12
2018-03-04T09:15:45.640Z,23.94
2018-03-04T09:18:14.628Z,23.81
2018-03-04T09:20:43.624Z,23.83
2018-03-04T09:25:29.424Z,25.07
2018-03-04T09:27:58.425Z,25.41
2018-03-04T09:30:27.428Z,25.55
2018-03-04T09:32:56.427Z,25.62
2018-03-04T09:35:25.698Z,25.67
2018-03-04T09:37:54.628Z,25.53
2018-03-04T09:41:14.429Z,24.49
2018-03-04T09:43:43.405Z,24.17
2018-03-04T09:46:12.581Z,24.00
2018-03-04T09:48:41.627Z,23.90
2018-03-04T09:51:10.608Z,23.84
2018-03-04T09:53:39.607Z,24.31
2018-03-04T09:56:08.660Z,24.99
2018-03-04T10:01:20.728Z,25.54
2018-03-04T10:03:49.669Z,25.61
2018-03-04T10:06:18.679Z,25.60
2018-03-04T10:08:47.657Z,25.60
2018-03-04T10:11:16.617Z,24.83
2018-03-04T10:13:45.632Z,24.54
2018-03-04T10:18:34.611Z,24.28
2018-03-04T10:21:03.649Z,24.16
2018-03-04T10:23:32.684Z,24.11
2018-03-04T10:26:01.635Z,24.11
2018-03-04T10:28:30.691Z,25.02
2018-03-04T10:32:12.725Z,25.47
2018-03-04T10:34:41.655Z,25.65
2018-03-04T10:37:10.740Z,25.57
2018-03-04T10:39:39.708Z,25.58
2018-03-04T10:42:08.633Z,25.49
2018-03-04T10:44:37.705Z,24.82
2018-03-04T10:47:06.685Z,24.49
2018-03-04T10:49:35.651Z,24.01
2018-03-04T10:52:04.735Z,23.98
2018-03-04T10:54:33.615Z,23.90
2018-03-04T10:57:02.670Z,24.00
2018-03-04T10:59:31.671Z,24.64
2018-03-04T11:02:04.835Z,25.03
2018-03-04T11:05:28.153Z,25.23
2018-03-04T11:07:57.655Z,25.50
2018-03-04T11:10:26.710Z,25.60
2018-03-04T11:13:42.667Z,25.45
2018-03-04T11:16:11.635Z,24.77
2018-03-04T11:18:40.655Z,24.36
2018-03-04T11:21:11.516Z,24.07
2018-03-04T11:23:40.708Z,23.94
2018-03-04T11:26:10.470Z,23.82
2018-03-04T11:28:39.690Z,23.82
2018-03-04T11:31:08.729Z,24.39
2018-03-04T11:33:37.691Z,24.70
2018-03-04T11:38:54.676Z,24.99
2018-03-04T11:41:23.719Z,25.32
2018-03-04T11:43:52.663Z,25.40
2018-03-04T11:46:21.723Z,25.11
2018-03-04T11:48:50.675Z,24.41
2018-03-04T11:51:19.697Z,24.05
2018-03-04T11:53:48.663Z,23.88
2018-03-04T11:57:35.576Z,23.72
2018-03-04T12:00:04.659Z,23.73
2018-03-04T12:02:33.636Z,24.36
2018-03-04T12:05:02.864Z,24.97
2018-03-04T12:09:05.755Z,25.31
2018-03-04T12:11:34.693Z,25.42
2018-03-04T12:14:03.680Z,25.57
2018-03-04T12:16:32.644Z,25.69
2018-03-04T12:19:01.679Z,25.17
2018-03-04T12:21:30.739Z,24.68
2018-03-04T12:23:59.711Z,24.43
2018-03-04T12:26:28.681Z,24.26
2018-03-04T12:28:57.711Z,24.08
2018-03-04T12:31:26.699Z,24.05
2018-03-04T12:33:55.663Z,24.80
2018-03-04T12:37:10.684Z,25.26
2018-03-04T12:41:44.683Z,25.44
2018-03-04T12:44:13.694Z,25.47
2018-03-04T12:46:42.732Z,25.68
2018-03-04T12:49:11.696Z,25.54
2018-03-04T12:51:40.966Z,24.85
2018-03-04T12:54:09.181Z,24.49
2018-03-04T12:56:38.640Z,24.26
2018-03-04T12:59:07.755Z,24.29
2018-03-04T13:01:36.705Z,24.29
2018-03-04T13:06:17.054Z,24.42
2018-03-04T13:08:45.590Z,25.13
2018-03-04T13:11:14.692Z,25.40
2018-03-04T13:13:43.719Z,25.66
2018-03-04T13:16:12.732Z,25.72
2018-03-04T13:18:41.768Z,25.80
2018-03-04T13:21:10.749Z,25.42
2018-03-04T13:23:39.696Z,24.71
2018-03-04T13:26:08.698Z,24.36
2018-03-04T13:29:24.476Z,24.09
2018-03-04T13:31:54.428Z,23.95
2018-03-04T13:34:23.728Z,23.91
2018-03-04T13:36:52.654Z,24.31
2018-03-04T13:39:21.645Z,24.81
2018-03-04T13:41:50.710Z,25.08
2018-03-04T13:44:19.729Z,25.32
2018-03-04T13:46:48.687Z,25.46
2018-03-04T13:49:17.676Z,25.58
2018-03-04T13:51:46.653Z,24.83
2018-03-04T13:54:15.705Z,24.40
2018-03-04T13:58:30.695Z,24.15
2018-03-04T14:00:59.705Z,24.06
2018-03-04T14:03:28.666Z,23.98
2018-03-04T14:05:57.651Z,24.01
2018-03-04T14:08:26.657Z,24.32
2018-03-04T14:13:16.752Z,25.42
2018-03-04T14:15:45.649Z,25.43
2018-03-04T14:18:14.651Z,25.38
2018-03-04T14:20:43.722Z,25.34
2018-03-04T14:23:12.691Z,25.46
2018-03-04T14:25:41.721Z,25.15
2018-03-04T14:28:10.623Z,24.58
2018-03-04T14:30:39.679Z,24.42
2018-03-04T14:33:08.675Z,24.25
2018-03-04T14:35:37.693Z,24.04
2018-03-04T14:38:06.620Z,24.02
2018-03-04T14:40:35.623Z,24.18
2018-03-04T14:43:04.879Z,24.94
2018-03-04T14:45:33.660Z,25.27
2018-03-04T14:48:02.595Z,25.11
2018-03-04T14:50:31.655Z,25.06
2018-03-04T14:53:00.637Z,25.27
2018-03-04T14:55:29.668Z,25.02
2018-03-04T14:57:58.624Z,24.47
2018-03-04T15:00:27.643Z,24.25
2018-03-04T15:02:56.650Z,24.08
2018-03-04T15:05:25.634Z,23.94
2018-03-04T15:07:54.657Z,23.86
2018-03-04T15:10:23.643Z,23.88
2018-03-04T15:12:52.708Z,24.61
2018-03-04T15:15:21.635Z,24.91
2018-03-04T15:17:50.657Z,25.12
2018-03-04T15:20:19.632Z,25.35
2018-03-04T15:22:48.644Z,25.24
2018-03-04T15:25:17.628Z,25.19
2018-03-04T15:27:46.639Z,24.84
2018-03-04T15:30:15.760Z,24.28
2018-03-04T15:32:44.643Z,24.02
2018-03-04T15:35:13.655Z,23.86
2018-03-04T15:37:42.663Z,23.75
2018-03-04T15:40:11.727Z,23.63
2018-03-04T15:42:40.683Z,23.88
2018-03-04T15:47:27.518Z,25.01
2018-03-04T15:49:56.608Z,25.07
2018-03-04T15:52:25.703Z,25.11
2018-03-04T15:54:54.651Z,25.13
2018-03-04T15:57:23.685Z,25.26
2018-03-04T15:59:52.649Z,24.76
2018-03-04T16:03:41.727Z,24.07
2018-03-04T16:10:59.692Z,23.51
2018-03-04T16:13:28.697Z,23.70
2018-03-04T16:15:57.741Z,24.50
2018-03-04T16:18:27.580Z,24.66
2018-03-04T16:23:10.549Z,24.34
2018-03-04T16:25:39.920Z,24.43
2018-03-04T16:28:08.529Z,24.42
2018-03-04T16:30:37.707Z,24.31
2018-03-04T16:33:06.764Z,24.22
2018-03-04T16:35:35.890Z,24.81
2018-03-04T16:38:04.734Z,24.03
2018-03-04T16:40:33.771Z,23.58
2018-03-04T16:43:02.775Z,23.46
2018-03-04T16:45:31.758Z,23.36
2018-03-04T16:48:01.333Z,23.29
2018-03-04T16:50:30.519Z,23.34
2018-03-04T16:54:32.867Z,24.32
2018-03-04T16:57:02.340Z,24.69
2018-03-04T17:01:30.760Z,25.08
2018-03-04T17:03:59.711Z,25.17
2018-03-04T17:06:29.345Z,25.33
2018-03-04T17:08:58.708Z,24.98
2018-03-04T17:11:27.701Z,24.16
2018-03-04T17:13:56.760Z,23.73
2018-03-04T17:16:25.764Z,23.51
2018-03-04T17:18:55.296Z,23.40
2018-03-04T17:21:24.656Z,23.35
2018-03-04T17:23:53.720Z,23.89
2018-03-04T17:26:22.807Z,24.64
2018-03-04T17:28:51.883Z,24.57
2018-03-04T17:31:21.318Z,24.73
2018-03-04T17:33:50.721Z,24.98
2018-03-04T17:36:20.167Z,25.20
2018-03-04T17:38:49.700Z,25.08
2018-03-04T17:42:20.715Z,24.61
2018-03-04T17:44:49.713Z,24.08
2018-03-04T17:48:36.746Z,23.67
2018-03-04T17:51:06.699Z,23.62
2018-03-04T17:53:36.204Z,23.48
2018-03-04T17:57:27.707Z,23.56
2018-03-04T17:59:57.729Z,24.47
2018-03-04T18:02:26.689Z,24.76
2018-03-04T18:04:55.651Z,24.75
2018-03-04T18:07:24.681Z,24.78
2018-03-04T18:09:53.695Z,25.08
2018-03-04T18:12:22.744Z,25.30
2018-03-04T18:14:51.771Z,25.14
2018-03-04T18:17:20.690Z,24.84
2018-03-04T18:19:49.667Z,24.45
2018-03-04T18:22:18.758Z,24.08
2018-03-04T18:24:47.648Z,23.95
2018-03-04T18:27:16.625Z,23.80
2018-03-04T18:29:46.200Z,23.77
2018-03-04T18:32:15.623Z,24.22
2018-03-04T18:34:44.615Z,24.60
2018-03-04T18:37:13.626Z,24.93
2018-03-04T18:39:42.747Z,25.10
2018-03-04T18:42:11.855Z,25.33
2018-03-04T18:44:40.690Z,25.35
2018-03-04T18:47:10.050Z,25.47
2018-03-04T18:49:39.624Z,24.57
2018-03-04T18:52:08.623Z,24.21
2018-03-04T18:54:37.623Z,24.08
2018-03-04T18:57:06.602Z,23.94
2018-03-04T19:01:44.657Z,23.71
2018-03-04T19:04:13.660Z,23.82
2018-03-04T19:06:42.684Z,24.46
2018-03-04T19:09:11.660Z,24.84
2018-03-04T19:11:40.578Z,25.34
2018-03-04T19:14:09.633Z,25.26
2018-03-04T19:16:39.047Z,25.31
2018-03-04T19:19:08.660Z,25.34
2018-03-04T19:21:37.687Z,25.35
2018-03-04T19:24:06.673Z,24.84
2018-03-04T19:26:35.660Z,24.07
2018-03-04T19:29:04.757Z,23.77
2018-03-04T19:31:33.707Z,23.61
2018-03-04T19:34:02.667Z,23.50
2018-03-04T19:36:31.688Z,23.52
2018-03-04T19:39:00.764Z,24.18
2018-03-04T19:41:29.779Z,24.78
2018-03-04T19:43:58.661Z,25.11
2018-03-04T19:46:27.678Z,25.04
2018-03-04T19:48:56.631Z,25.05
2018-03-04T19:51:25.661Z,25.04
2018-03-04T19:53:54.641Z,25.29
2018-03-04T19:56:23.623Z,25.03
2018-03-04T19:58:52.679Z,24.34
2018-03-04T20:01:21.618Z,23.77
2018-03-04T20:03:50.697Z,23.42
2018-03-04T20:06:20.151Z,23.19
2018-03-04T20:08:49.434Z,22.96
2018-03-04T20:13:12.647Z,23.47
2018-03-04T20:15:41.651Z,24.36
2018-03-04T20:18:10.648Z,24.64
2018-03-04T20:20:39.671Z,24.79
2018-03-04T20:23:08.775Z,25.00
2018-03-04T20:25:37.687Z,25.01
2018-03-04T20:28:06.675Z,25.18
2018-03-04T20:30:35.687Z,25.16
2018-03-04T20:33:04.755Z,24.53
2018-03-04T20:35:33.857Z,24.11
2018-03-04T20:38:02.699Z,23.90
2018-03-04T20:40:31.691Z,23.84
2018-03-04T20:43:01.178Z,23.72
2018-03-04T20:45:30.160Z,23.64
2018-03-04T20:49:57.517Z,24.74
2018-03-04T20:52:26.709Z,25.01
2018-03-04T20:54:55.704Z,25.18
2018-03-04T20:57:24.687Z,25.32
2018-03-04T20:59:53.682Z,25.28
2018-03-04T21:02:22.752Z,25.24
2018-03-04T21:04:51.740Z,24.60
2018-03-04T21:10:57.780Z,24.06
2018-03-04T21:13:26.699Z,23.85
2018-03-04T21:15:55.719Z,23.73
2018-03-04T21:18:25.573Z,23.95
2018-03-04T21:20:54.661Z,24.69
2018-03-04T21:23:23.677Z,24.94
2018-03-04T21:25:52.635Z,25.01
2018-03-04T21:28:21.636Z,25.03
2018-03-04T21:30:50.671Z,25.08
2018-03-04T21:33:19.632Z,25.31
2018-03-04T21:35:48.637Z,24.92
2018-03-04T21:38:17.635Z,24.46
2018-03-04T21:42:48.531Z,24.08
2018-03-04T21:45:17.656Z,24.00
2018-03-04T21:47:46.647Z,23.99
2018-03-04T21:50:15.661Z,23.98
2018-03-04T21:52:44.692Z,24.51
2018-03-04T21:55:13.712Z,24.99
2018-03-04T21:59:29.670Z,25.24
2018-03-04T22:01:58.640Z,25.28
2018-03-04T22:04:27.651Z,25.22
2018-03-04T22:06:56.687Z,25.27
2018-03-04T22:09:25.673Z,24.78
2018-03-04T22:11:54.676Z,24.39
2018-03-04T22:14:23.429Z,24.26
2018-03-04T22:16:52.639Z,24.15
2018-03-04T22:19:21.657Z,24.10
2018-03-04T22:21:50.655Z,23.94
2018-03-04T22:26:32.676Z,24.89
2018-03-04T22:29:01.646Z,25.27
2018-03-04T22:31:30.676Z,25.35
2018-03-04T22:33:59.644Z,25.43
2018-03-04T22:36:28.650Z,25.56
2018-03-04T22:38:58.182Z,25.22
2018-03-04T22:41:27.426Z,24.70
2018-03-04T22:43:56.654Z,24.45
2018-03-04T22:46:25.698Z,24.28
2018-03-04T22:48:54.640Z,24.15
2018-03-04T22:51:23.670Z,23.94
2018-03-04T22:53:52.640Z,23.91
2018-03-04T22:56:21.679Z,24.53
2018-03-04T22:58:50.657Z,24.93
2018-03-04T23:01:19.682Z,25.09
2018-03-04T23:03:48.622Z,25.07
2018-03-04T23:06:17.623Z,25.06
2018-03-04T23:08:46.599Z,25.18
2018-03-04T23:11:15.623Z,24.83
2018-03-04T23:13:44.649Z,24.39
2018-03-04T23:16:13.623Z,24.25
2018-03-04T23:18:52.669Z,24.05
2018-03-04T23:21:21.635Z,23.84
2018-03-04T23:23:50.597Z,23.83
2018-03-04T23:26:19.669Z,24.40
2018-03-04T23:28:48.687Z,24.82
2018-03-04T23:31:17.636Z,25.14
2018-03-04T23:33:46.607Z,25.19
2018-03-04T23:36:15.623Z,25.32
2018-03-04T23:38:44.652Z,25.46
2018-03-04T23:41:14.439Z,24.98
2018-03-04T23:45:12.154Z,24.44
2018-03-04T23:50:11.686Z,23.96
2018-03-04T23:52:40.751Z,23.93
2018-03-04T23:55:09.677Z,23.92
2018-03-04T23:57:38.648Z,24.53
